createdAt,value
2023-08-14T12:10:25.998Z,19.70
2023-08-14T12:12:55.887Z,19.78
2023-08-14T12:15:25.053Z,19.83
2023-08-14T12:17:52.803Z,19.58
2023-08-14T12:20:22.460Z,19.41
2023-08-14T12:22:55.354Z,19.31
2023-08-14T12:25:29.533Z,18.92
2023-08-14T12:27:56.528Z,19.06
2023-08-14T12:30:23.523Z,18.77
2023-08-14T12:32:50.879Z,18.57
2023-08-14T12:35:17.902Z,18.12
2023-08-14T12:37:44.795Z,18.19
2023-08-14T12:40:12.303Z,18.26
2023-08-14T12:42:41.029Z,18.36
2023-08-14T12:45:08.755Z,18.00
2023-08-14T12:47:35.785Z,18.19
2023-08-14T12:50:02.857Z,18.01
2023-08-14T12:52:30.696Z,18.09
2023-08-14T12:57:28.851Z,18.11
2023-08-14T12:59:57.523Z,17.33
2023-08-14T13:04:54.911Z,16.83
2023-08-14T13:07:23.955Z,17.12
2023-08-14T13:09:51.927Z,17.46
2023-08-14T13:12:18.932Z,17.34
2023-08-14T13:14:46.661Z,17.08
2023-08-14T13:17:17.230Z,17.09
2023-08-14T13:19:44.848Z,16.94
2023-08-14T13:22:12.410Z,16.84
2023-08-14T13:24:39.398Z,16.63
2023-08-14T13:27:09.629Z,16.43
2023-08-14T13:29:43.807Z,16.82
2023-08-14T13:32:11.393Z,16.70
2023-08-14T13:34:39.714Z,16.35
2023-08-14T13:37:07.112Z,15.99
2023-08-14T13:39:34.565Z,16.18
2023-08-14T13:42:02.142Z,16.03
2023-08-14T13:44:29.504Z,16.15
2023-08-14T13:46:56.855Z,16.06
2023-08-14T13:49:24.174Z,15.97
2023-08-14T13:51:52.893Z,16.16
2023-08-14T13:54:19.949Z,16.20
2023-08-14T13:56:47.073Z,16.01
2023-08-14T13:59:14.012Z,15.63
2023-08-14T14:01:40.926Z,15.68
2023-08-14T14:04:08.833Z,15.91
2023-08-14T14:06:35.820Z,15.50
2023-08-14T14:09:07.373Z,15.57
2023-08-14T14:11:34.597Z,16.07
2023-08-14T14:14:01.663Z,16.06
2023-08-14T14:16:52.412Z,16.11
2023-08-14T14:19:19.882Z,15.79
2023-08-14T14:21:47.444Z,15.68
2023-08-14T14:24:16.024Z,16.00
2023-08-14T14:26:43.196Z,16.31
2023-08-14T14:29:10.389Z,16.15
2023-08-14T14:31:37.651Z,15.69
2023-08-14T14:34:06.669Z,15.26
2023-08-14T14:36:34.695Z,14.94
2023-08-14T14:39:02.351Z,15.43
2023-08-14T14:41:31.815Z,15.69
2023-08-14T14:43:58.935Z,15.83
2023-08-14T14:46:25.947Z,15.96
2023-08-14T14:48:53.284Z,15.69
2023-08-14T14:51:20.526Z,16.24
2023-08-14T14:53:47.695Z,16.63
2023-08-14T14:56:15.997Z,16.96
2023-08-14T14:58:44.487Z,16.84
2023-08-14T15:01:11.457Z,16.93
2023-08-14T15:03:38.501Z,16.94
2023-08-14T15:06:05.870Z,17.17
2023-08-14T15:08:33.017Z,17.27
2023-08-14T15:11:00.511Z,17.77
2023-08-14T15:13:27.873Z,18.56
2023-08-14T15:15:56.614Z,18.93
2023-08-14T15:18:23.740Z,19.44
2023-08-14T15:20:50.996Z,19.83
2023-08-14T15:23:18.279Z,20.01
2023-08-14T15:25:46.116Z,20.12
2023-08-14T15:28:14.108Z,20.57
2023-08-14T15:30:42.874Z,20.88
2023-08-14T15:33:13.794Z,21.15
2023-08-14T15:35:40.940Z,21.35
2023-08-14T15:38:08.353Z,22.19
2023-08-14T15:40:36.015Z,22.11
2023-08-14T15:43:03.786Z,22.80
2023-08-14T15:45:30.810Z,22.97
2023-08-14T15:47:57.841Z,23.15
2023-08-14T15:50:26.274Z,22.77
2023-08-14T15:52:53.539Z,23.42
2023-08-14T15:55:20.606Z,24.24
2023-08-14T15:57:48.013Z,24.42
2023-08-14T16:00:15.831Z,24.75
2023-08-14T16:02:42.928Z,24.68
2023-08-14T16:05:10.746Z,24.62
2023-08-14T16:07:39.546Z,25.12
2023-08-14T16:10:07.511Z,25.52
2023-08-14T16:12:34.750Z,25.60
2023-08-14T16:15:01.842Z,25.68
2023-08-14T16:17:29.297Z,26.20
2023-08-14T16:19:56.933Z,26.40
2023-08-14T16:22:24.152Z,26.36
2023-08-14T16:24:53.112Z,26.38
2023-08-14T16:27:20.399Z,26.46
2023-08-14T16:29:48.030Z,26.79
2023-08-14T16:32:15.811Z,27.22
2023-08-14T16:34:42.941Z,27.47
2023-08-14T16:37:10.432Z,27.46
2023-08-14T16:39:37.468Z,27.62
2023-08-14T16:42:06.514Z,27.70
2023-08-14T16:44:34.103Z,27.90
2023-08-14T16:47:03.173Z,28.38
2023-08-14T16:49:30.454Z,28.48
2023-08-14T16:51:57.458Z,29.07
2023-08-14T16:54:24.664Z,29.20
2023-08-14T16:56:52.340Z,29.79
2023-08-14T16:59:21.592Z,30.36
2023-08-14T17:01:48.844Z,30.69
2023-08-14T17:04:16.574Z,30.43
2023-08-14T17:06:44.354Z,30.95
2023-08-14T17:09:12.006Z,31.03
2023-08-14T17:11:39.228Z,31.62
2023-08-14T17:14:06.993Z,31.93
2023-08-14T17:16:36.780Z,32.57
2023-08-14T17:19:04.814Z,33.07
2023-08-14T17:21:32.510Z,33.39
2023-08-14T17:23:59.618Z,34.07
2023-08-14T17:26:27.280Z,34.29
2023-08-14T17:28:55.031Z,35.07
2023-08-14T17:31:22.665Z,35.88
2023-08-14T17:33:54.629Z,36.35
2023-08-14T17:36:23.163Z,36.43
2023-08-14T17:38:50.331Z,36.73
2023-08-14T17:41:17.474Z,37.44
2023-08-14T17:43:45.194Z,36.94
2023-08-14T17:46:12.864Z,37.88
2023-08-14T17:48:42.793Z,38.25
2023-08-14T17:51:14.149Z,38.37
2023-08-14T17:53:41.990Z,38.37
2023-08-14T17:56:09.896Z,38.68
2023-08-14T17:58:37.728Z,39.34
2023-08-14T18:01:05.528Z,39.52
2023-08-14T18:03:32.777Z,39.65
2023-08-14T18:06:01.864Z,39.54
2023-08-14T18:08:32.045Z,40.51
2023-08-14T18:11:02.335Z,40.66
2023-08-14T18:13:30.891Z,40.60
2023-08-14T18:16:00.586Z,40.53
2023-08-14T18:18:28.744Z,40.97
2023-08-14T18:20:56.764Z,41.22
2023-08-14T18:23:25.104Z,41.30
2023-08-14T18:25:57.330Z,41.97
2023-08-14T18:28:27.721Z,42.25
2023-08-14T18:30:55.698Z,42.71
2023-08-14T18:33:23.357Z,42.99
2023-08-14T18:35:50.817Z,43.48
2023-08-14T18:38:18.543Z,44.70
2023-08-14T18:40:47.151Z,45.48
2023-08-14T18:43:18.280Z,46.53
2023-08-14T18:45:47.984Z,47.59
2023-08-14T18:48:17.924Z,48.35
